sensor_id;sensor_type;location;lat;lon;timestamp;P1;durP1;ratioP1;P2;durP2;ratioP2
3257;SDS011;1641;51.306;12.384;2022-08-16T00:01:43;43.58;;;29.15;;
3257;SDS011;1641;51.306;12.384;2022-08-16T00:04:08;42.45;;;27.25;;
3257;SDS011;1641;51.306;12.384;2022-08-16T00:06:34;42.72;;;28.25;;
3257;SDS011;1641;51.306;12.384;2022-08-16T00:08:59;38.05;;;26.63;;
3257;SDS011;1641;51.306;12.384;2022-08-16T00:11:27;38.97;;;27.63;;
3257;SDS011;1641;51.306;12.384;2022-08-16T00:13:53;43.65;;;27.27;;
3257;SDS011;1641;51.306;12.384;2022-08-16T00:16:22;36.83;;;26.10;;
3257;SDS011;1641;51.306;12.384;2022-08-16T00:18:48;37.65;;;27.33;;
3257;SDS011;1641;51.306;12.384;2022-08-16T00:21:14;35.85;;;26.05;;
3257;SDS011;1641;51.306;12.384;2022-08-16T00:23:39;42.63;;;27.52;;
3257;SDS011;1641;51.306;12.384;2022-08-16T00:26:04;38.10;;;25.90;;
3257;SDS011;1641;51.306;12.384;2022-08-16T00:28:30;39.63;;;25.88;;
3257;SDS011;1641;51.306;12.384;2022-08-16T00:30:55;36.70;;;25.42;;
3257;SDS011;1641;51.306;12.384;2022-08-16T00:33:20;35.78;;;25.73;;
3257;SDS011;1641;51.306;12.384;2022-08-16T00:35:45;39.03;;;25.33;;
3257;SDS011;1641;51.306;12.384;2022-08-16T00:38:11;34.88;;;25.50;;
3257;SDS011;1641;51.306;12.384;2022-08-16T00:40:37;42.35;;;24.52;;
3257;SDS011;1641;51.306;12.384;2022-08-16T00:43:07;32.95;;;23.85;;
3257;SDS011;1641;51.306;12.384;2022-08-16T00:45:37;32.33;;;24.13;;
3257;SDS011;1641;51.306;12.384;2022-08-16T00:48:08;37.65;;;24.05;;
3257;SDS011;1641;51.306;12.384;2022-08-16T00:50:36;35.85;;;23.20;;
3257;SDS011;1641;51.306;12.384;2022-08-16T00:53:04;35.55;;;23.77;;
3257;SDS011;1641;51.306;12.384;2022-08-16T00:55:31;33.80;;;23.35;;
3257;SDS011;1641;51.306;12.384;2022-08-16T00:57:58;37.80;;;24.02;;
3257;SDS011;1641;51.306;12.384;2022-08-16T01:00:24;30.95;;;22.90;;
3257;SDS011;1641;51.306;12.384;2022-08-16T01:02:52;30.02;;;22.65;;
3257;SDS011;1641;51.306;12.384;2022-08-16T01:05:17;34.20;;;23.83;;
3257;SDS011;1641;51.306;12.384;2022-08-16T01:07:43;34.30;;;23.73;;
3257;SDS011;1641;51.306;12.384;2022-08-16T01:10:10;34.00;;;23.20;;
3257;SDS011;1641;51.306;12.384;2022-08-16T01:12:36;31.10;;;22.15;;
3257;SDS011;1641;51.306;12.384;2022-08-16T01:15:01;28.88;;;23.20;;
3257;SDS011;1641;51.306;12.384;2022-08-16T01:17:30;40.30;;;25.15;;
3257;SDS011;1641;51.306;12.384;2022-08-16T01:19:58;31.80;;;22.35;;
3257;SDS011;1641;51.306;12.384;2022-08-16T01:25:13;36.25;;;23.60;;
3257;SDS011;1641;51.306;12.384;2022-08-16T01:27:49;28.48;;;21.40;;
3257;SDS011;1641;51.306;12.384;2022-08-16T01:30:25;34.90;;;23.15;;
3257;SDS011;1641;51.306;12.384;2022-08-16T01:32:54;31.27;;;23.00;;
3257;SDS011;1641;51.306;12.384;2022-08-16T01:38:13;35.42;;;24.52;;
3257;SDS011;1641;51.306;12.384;2022-08-16T01:40:41;28.85;;;22.98;;
3257;SDS011;1641;51.306;12.384;2022-08-16T01:43:07;32.17;;;23.63;;
3257;SDS011;1641;51.306;12.384;2022-08-16T01:45:32;36.42;;;24.15;;
3257;SDS011;1641;51.306;12.384;2022-08-16T01:47:59;33.70;;;24.17;;
3257;SDS011;1641;51.306;12.384;2022-08-16T01:50:24;34.00;;;24.15;;
3257;SDS011;1641;51.306;12.384;2022-08-16T01:52:49;30.20;;;23.85;;
3257;SDS011;1641;51.306;12.384;2022-08-16T01:55:16;34.63;;;24.83;;
3257;SDS011;1641;51.306;12.384;2022-08-16T01:57:42;34.88;;;25.02;;
3257;SDS011;1641;51.306;12.384;2022-08-16T02:00:08;34.03;;;23.48;;
3257;SDS011;1641;51.306;12.384;2022-08-16T02:02:35;31.38;;;24.20;;
3257;SDS011;1641;51.306;12.384;2022-08-16T02:05:01;36.33;;;24.40;;
3257;SDS011;1641;51.306;12.384;2022-08-16T02:07:29;34.80;;;25.23;;
3257;SDS011;1641;51.306;12.384;2022-08-16T02:09:55;33.78;;;23.52;;
3257;SDS011;1641;51.306;12.384;2022-08-16T02:12:24;35.97;;;24.73;;
3257;SDS011;1641;51.306;12.384;2022-08-16T02:14:49;33.80;;;24.05;;
3257;SDS011;1641;51.306;12.384;2022-08-16T02:17:15;32.65;;;24.02;;
3257;SDS011;1641;51.306;12.384;2022-08-16T02:19:41;32.17;;;24.58;;
3257;SDS011;1641;51.306;12.384;2022-08-16T02:22:09;37.22;;;25.20;;
3257;SDS011;1641;51.306;12.384;2022-08-16T02:24:38;32.63;;;23.27;;
3257;SDS011;1641;51.306;12.384;2022-08-16T02:27:05;36.90;;;24.60;;
3257;SDS011;1641;51.306;12.384;2022-08-16T02:29:30;37.20;;;24.63;;
3257;SDS011;1641;51.306;12.384;2022-08-16T02:31:56;33.00;;;24.10;;
3257;SDS011;1641;51.306;12.384;2022-08-16T02:34:22;35.40;;;25.80;;
3257;SDS011;1641;51.306;12.384;2022-08-16T02:36:47;31.75;;;23.35;;
3257;SDS011;1641;51.306;12.384;2022-08-16T02:39:14;28.70;;;23.17;;
3257;SDS011;1641;51.306;12.384;2022-08-16T02:41:41;39.45;;;24.88;;
3257;SDS011;1641;51.306;12.384;2022-08-16T02:44:08;29.45;;;22.90;;
3257;SDS011;1641;51.306;12.384;2022-08-16T02:46:37;31.58;;;22.58;;
3257;SDS011;1641;51.306;12.384;2022-08-16T02:49:06;30.27;;;23.55;;
3257;SDS011;1641;51.306;12.384;2022-08-16T02:51:31;31.45;;;22.85;;
3257;SDS011;1641;51.306;12.384;2022-08-16T02:53:57;32.58;;;22.73;;
3257;SDS011;1641;51.306;12.384;2022-08-16T02:56:23;31.67;;;22.75;;
3257;SDS011;1641;51.306;12.384;2022-08-16T02:58:49;34.85;;;22.88;;
3257;SDS011;1641;51.306;12.384;2022-08-16T03:01:16;30.05;;;22.80;;
3257;SDS011;1641;51.306;12.384;2022-08-16T03:03:46;24.20;;;20.83;;
3257;SDS011;1641;51.306;12.384;2022-08-16T03:06:12;27.85;;;21.42;;
3257;SDS011;1641;51.306;12.384;2022-08-16T03:08:38;30.88;;;21.73;;
3257;SDS011;1641;51.306;12.384;2022-08-16T03:11:03;25.33;;;20.52;;
3257;SDS011;1641;51.306;12.384;2022-08-16T03:13:29;25.85;;;21.15;;
3257;SDS011;1641;51.306;12.384;2022-08-16T03:15:54;28.77;;;20.77;;
3257;SDS011;1641;51.306;12.384;2022-08-16T03:18:20;32.90;;;21.02;;
3257;SDS011;1641;51.306;12.384;2022-08-16T03:20:45;33.40;;;22.95;;
3257;SDS011;1641;51.306;12.384;2022-08-16T03:23:10;32.17;;;21.65;;
3257;SDS011;1641;51.306;12.384;2022-08-16T03:25:39;30.20;;;22.02;;
3257;SDS011;1641;51.306;12.384;2022-08-16T03:28:05;30.77;;;22.75;;
3257;SDS011;1641;51.306;12.384;2022-08-16T03:30:35;29.33;;;21.77;;
3257;SDS011;1641;51.306;12.384;2022-08-16T03:33:01;32.80;;;21.13;;
3257;SDS011;1641;51.306;12.384;2022-08-16T03:35:29;28.67;;;21.38;;
3257;SDS011;1641;51.306;12.384;2022-08-16T03:37:57;27.73;;;19.85;;
3257;SDS011;1641;51.306;12.384;2022-08-16T03:40:24;25.85;;;20.25;;
3257;SDS011;1641;51.306;12.384;2022-08-16T03:42:50;28.80;;;20.50;;
3257;SDS011;1641;51.306;12.384;2022-08-16T03:45:16;31.55;;;20.83;;
3257;SDS011;1641;51.306;12.384;2022-08-16T03:47:41;28.75;;;19.67;;
3257;SDS011;1641;51.306;12.384;2022-08-16T03:50:09;30.52;;;19.90;;
3257;SDS011;1641;51.306;12.384;2022-08-16T03:52:35;29.08;;;22.05;;
3257;SDS011;1641;51.306;12.384;2022-08-16T03:55:01;22.73;;;19.33;;
3257;SDS011;1641;51.306;12.384;2022-08-16T03:57:28;22.85;;;17.60;;
3257;SDS011;1641;51.306;12.384;2022-08-16T03:59:54;23.23;;;19.10;;
3257;SDS011;1641;51.306;12.384;2022-08-16T04:02:19;24.40;;;18.45;;
3257;SDS011;1641;51.306;12.384;2022-08-16T04:04:46;19.52;;;17.48;;
3257;SDS011;1641;51.306;12.384;2022-08-16T04:07:12;22.58;;;17.20;;
3257;SDS011;1641;51.306;12.384;2022-08-16T04:09:39;24.90;;;17.60;;
3257;SDS011;1641;51.306;12.384;2022-08-16T04:12:05;29.23;;;18.70;;
3257;SDS011;1641;51.306;12.384;2022-08-16T04:14:31;25.90;;;17.00;;
3257;SDS011;1641;51.306;12.384;2022-08-16T04:16:56;22.98;;;17.42;;
3257;SDS011;1641;51.306;12.384;2022-08-16T04:19:22;21.08;;;17.92;;
3257;SDS011;1641;51.306;12.384;2022-08-16T04:21:49;26.23;;;16.40;;
3257;SDS011;1641;51.306;12.384;2022-08-16T04:24:15;23.67;;;17.15;;
3257;SDS011;1641;51.306;12.384;2022-08-16T04:26:40;23.55;;;17.63;;
3257;SDS011;1641;51.306;12.384;2022-08-16T04:29:09;18.02;;;15.13;;
3257;SDS011;1641;51.306;12.384;2022-08-16T04:31:34;16.95;;;15.27;;
3257;SDS011;1641;51.306;12.384;2022-08-16T04:33:59;17.10;;;15.27;;
3257;SDS011;1641;51.306;12.384;2022-08-16T04:36:25;21.23;;;14.95;;
3257;SDS011;1641;51.306;12.384;2022-08-16T04:38:52;20.90;;;15.70;;
3257;SDS011;1641;51.306;12.384;2022-08-16T04:41:18;27.88;;;16.00;;
3257;SDS011;1641;51.306;12.384;2022-08-16T04:43:44;17.75;;;15.48;;
3257;SDS011;1641;51.306;12.384;2022-08-16T04:46:09;19.02;;;16.33;;
3257;SDS011;1641;51.306;12.384;2022-08-16T04:48:34;19.40;;;15.50;;
3257;SDS011;1641;51.306;12.384;2022-08-16T04:51:00;21.15;;;14.65;;
3257;SDS011;1641;51.306;12.384;2022-08-16T04:53:25;20.67;;;14.77;;
3257;SDS011;1641;51.306;12.384;2022-08-16T04:55:52;17.08;;;14.90;;
3257;SDS011;1641;51.306;12.384;2022-08-16T04:58:18;19.42;;;13.82;;
3257;SDS011;1641;51.306;12.384;2022-08-16T05:00:44;15.05;;;13.55;;
3257;SDS011;1641;51.306;12.384;2022-08-16T05:03:10;15.65;;;12.63;;
3257;SDS011;1641;51.306;12.384;2022-08-16T05:05:37;16.40;;;12.35;;
3257;SDS011;1641;51.306;12.384;2022-08-16T05:08:04;14.40;;;12.90;;
3257;SDS011;1641;51.306;12.384;2022-08-16T05:10:29;15.90;;;13.02;;
3257;SDS011;1641;51.306;12.384;2022-08-16T05:12:56;14.43;;;13.02;;
3257;SDS011;1641;51.306;12.384;2022-08-16T05:15:22;14.63;;;13.13;;
3257;SDS011;1641;51.306;12.384;2022-08-16T05:17:47;14.55;;;12.52;;
3257;SDS011;1641;51.306;12.384;2022-08-16T05:20:12;12.85;;;11.45;;
3257;SDS011;1641;51.306;12.384;2022-08-16T05:22:37;12.88;;;11.15;;
3257;SDS011;1641;51.306;12.384;2022-08-16T05:25:04;12.85;;;11.20;;
3257;SDS011;1641;51.306;12.384;2022-08-16T05:27:31;15.65;;;11.30;;
3257;SDS011;1641;51.306;12.384;2022-08-16T05:29:56;11.52;;;10.43;;
3257;SDS011;1641;51.306;12.384;2022-08-16T05:32:21;11.40;;;10.10;;
3257;SDS011;1641;51.306;12.384;2022-08-16T05:34:46;12.55;;;10.50;;
3257;SDS011;1641;51.306;12.384;2022-08-16T05:37:12;11.57;;;9.45;;
3257;SDS011;1641;51.306;12.384;2022-08-16T05:39:37;11.40;;;9.75;;
3257;SDS011;1641;51.306;12.384;2022-08-16T05:42:02;12.07;;;9.70;;
3257;SDS011;1641;51.306;12.384;2022-08-16T05:44:28;10.68;;;9.38;;
3257;SDS011;1641;51.306;12.384;2022-08-16T05:46:54;13.97;;;9.23;;
3257;SDS011;1641;51.306;12.384;2022-08-16T05:49:24;15.02;;;9.93;;
3257;SDS011;1641;51.306;12.384;2022-08-16T05:51:50;10.30;;;8.50;;
3257;SDS011;1641;51.306;12.384;2022-08-16T05:54:17;12.23;;;8.82;;
3257;SDS011;1641;51.306;12.384;2022-08-16T05:56:43;11.13;;;7.80;;
3257;SDS011;1641;51.306;12.384;2022-08-16T05:59:10;9.90;;;8.50;;
3257;SDS011;1641;51.306;12.384;2022-08-16T06:01:36;8.77;;;7.93;;
3257;SDS011;1641;51.306;12.384;2022-08-16T06:04:02;12.02;;;8.82;;
3257;SDS011;1641;51.306;12.384;2022-08-16T06:06:28;8.90;;;7.60;;
3257;SDS011;1641;51.306;12.384;2022-08-16T06:08:53;8.20;;;7.30;;
3257;SDS011;1641;51.306;12.384;2022-08-16T06:11:18;9.10;;;6.78;;
3257;SDS011;1641;51.306;12.384;2022-08-16T06:13:43;9.80;;;6.43;;
3257;SDS011;1641;51.306;12.384;2022-08-16T06:16:11;9.10;;;6.60;;
3257;SDS011;1641;51.306;12.384;2022-08-16T06:18:37;11.57;;;6.72;;
3257;SDS011;1641;51.306;12.384;2022-08-16T06:21:02;6.80;;;6.15;;
3257;SDS011;1641;51.306;12.384;2022-08-16T06:23:27;8.05;;;5.90;;
3257;SDS011;1641;51.306;12.384;2022-08-16T06:25:53;17.73;;;6.38;;
3257;SDS011;1641;51.306;12.384;2022-08-16T06:28:18;12.63;;;6.47;;
3257;SDS011;1641;51.306;12.384;2022-08-16T06:30:44;6.25;;;5.72;;
3257;SDS011;1641;51.306;12.384;2022-08-16T06:33:13;6.43;;;5.70;;
3257;SDS011;1641;51.306;12.384;2022-08-16T06:35:40;11.35;;;6.93;;
3257;SDS011;1641;51.306;12.384;2022-08-16T06:38:05;5.67;;;5.17;;
3257;SDS011;1641;51.306;12.384;2022-08-16T06:40:30;11.05;;;5.53;;
3257;SDS011;1641;51.306;12.384;2022-08-16T06:42:56;13.40;;;5.25;;
3257;SDS011;1641;51.306;12.384;2022-08-16T06:45:22;5.45;;;4.95;;
3257;SDS011;1641;51.306;12.384;2022-08-16T06:47:47;8.77;;;4.97;;
3257;SDS011;1641;51.306;12.384;2022-08-16T06:50:13;5.25;;;4.63;;
3257;SDS011;1641;51.306;12.384;2022-08-16T06:52:38;6.05;;;4.47;;
3257;SDS011;1641;51.306;12.384;2022-08-16T06:55:05;5.47;;;4.90;;
3257;SDS011;1641;51.306;12.384;2022-08-16T06:57:32;5.25;;;4.75;;
3257;SDS011;1641;51.306;12.384;2022-08-16T06:59:57;8.00;;;4.70;;
3257;SDS011;1641;51.306;12.384;2022-08-16T07:02:22;8.23;;;4.75;;
3257;SDS011;1641;51.306;12.384;2022-08-16T07:04:48;5.30;;;4.80;;
3257;SDS011;1641;51.306;12.384;2022-08-16T07:07:13;5.27;;;4.73;;
3257;SDS011;1641;51.306;12.384;2022-08-16T07:09:38;4.80;;;4.40;;
3257;SDS011;1641;51.306;12.384;2022-08-16T07:12:04;7.20;;;4.78;;
3257;SDS011;1641;51.306;12.384;2022-08-16T07:14:30;5.85;;;4.57;;
3257;SDS011;1641;51.306;12.384;2022-08-16T07:16:56;4.70;;;4.28;;
3257;SDS011;1641;51.306;12.384;2022-08-16T07:19:22;6.70;;;4.45;;
3257;SDS011;1641;51.306;12.384;2022-08-16T07:21:47;5.77;;;4.37;;
3257;SDS011;1641;51.306;12.384;2022-08-16T07:24:12;6.32;;;4.75;;
3257;SDS011;1641;51.306;12.384;2022-08-16T07:26:38;6.50;;;4.28;;
3257;SDS011;1641;51.306;12.384;2022-08-16T07:29:04;6.13;;;4.35;;
3257;SDS011;1641;51.306;12.384;2022-08-16T07:31:29;5.00;;;4.60;;
3257;SDS011;1641;51.306;12.384;2022-08-16T07:33:54;7.07;;;4.80;;
3257;SDS011;1641;51.306;12.384;2022-08-16T07:36:20;4.57;;;4.17;;
3257;SDS011;1641;51.306;12.384;2022-08-16T07:38:46;4.25;;;3.83;;
3257;SDS011;1641;51.306;12.384;2022-08-16T07:41:11;7.32;;;5.65;;
3257;SDS011;1641;51.306;12.384;2022-08-16T07:43:37;4.32;;;3.92;;
3257;SDS011;1641;51.306;12.384;2022-08-16T07:46:02;6.35;;;4.10;;
3257;SDS011;1641;51.306;12.384;2022-08-16T07:48:27;7.78;;;4.20;;
3257;SDS011;1641;51.306;12.384;2022-08-16T07:50:53;4.78;;;4.25;;
3257;SDS011;1641;51.306;12.384;2022-08-16T07:53:19;5.15;;;4.07;;
3257;SDS011;1641;51.306;12.384;2022-08-16T07:55:45;5.03;;;4.03;;
3257;SDS011;1641;51.306;12.384;2022-08-16T07:58:10;8.52;;;3.88;;
3257;SDS011;1641;51.306;12.384;2022-08-16T08:00:36;5.97;;;4.22;;
3257;SDS011;1641;51.306;12.384;2022-08-16T08:03:02;6.80;;;3.33;;
3257;SDS011;1641;51.306;12.384;2022-08-16T08:05:28;6.22;;;3.83;;
3257;SDS011;1641;51.306;12.384;2022-08-16T08:07:55;5.78;;;3.30;;
3257;SDS011;1641;51.306;12.384;2022-08-16T08:10:21;4.90;;;4.07;;
3257;SDS011;1641;51.306;12.384;2022-08-16T08:12:48;4.50;;;4.00;;
3257;SDS011;1641;51.306;12.384;2022-08-16T08:15:14;6.00;;;4.43;;
3257;SDS011;1641;51.306;12.384;2022-08-16T08:17:40;4.40;;;4.00;;
3257;SDS011;1641;51.306;12.384;2022-08-16T08:20:07;5.75;;;4.50;;
3257;SDS011;1641;51.306;12.384;2022-08-16T08:22:34;7.70;;;4.53;;
3257;SDS011;1641;51.306;12.384;2022-08-16T08:25:00;6.07;;;3.83;;
3257;SDS011;1641;51.306;12.384;2022-08-16T08:27:26;4.80;;;4.03;;
3257;SDS011;1641;51.306;12.384;2022-08-16T08:29:54;4.93;;;4.43;;
3257;SDS011;1641;51.306;12.384;2022-08-16T08:32:20;4.68;;;3.55;;
3257;SDS011;1641;51.306;12.384;2022-08-16T08:34:46;5.13;;;4.10;;
3257;SDS011;1641;51.306;12.384;2022-08-16T08:37:11;8.40;;;4.05;;
3257;SDS011;1641;51.306;12.384;2022-08-16T08:39:37;4.10;;;3.70;;
3257;SDS011;1641;51.306;12.384;2022-08-16T08:42:03;4.93;;;3.65;;
3257;SDS011;1641;51.306;12.384;2022-08-16T08:44:29;5.30;;;4.68;;
3257;SDS011;1641;51.306;12.384;2022-08-16T08:46:55;4.13;;;3.80;;
3257;SDS011;1641;51.306;12.384;2022-08-16T08:49:22;4.80;;;3.78;;
3257;SDS011;1641;51.306;12.384;2022-08-16T08:51:47;4.05;;;3.60;;
3257;SDS011;1641;51.306;12.384;2022-08-16T08:54:13;4.93;;;3.80;;
3257;SDS011;1641;51.306;12.384;2022-08-16T08:56:38;5.40;;;3.75;;
3257;SDS011;1641;51.306;12.384;2022-08-16T08:59:05;5.53;;;4.28;;
3257;SDS011;1641;51.306;12.384;2022-08-16T09:01:32;6.63;;;5.70;;
3257;SDS011;1641;51.306;12.384;2022-08-16T09:03:59;29.67;;;21.60;;
3257;SDS011;1641;51.306;12.384;2022-08-16T09:06:28;6.07;;;4.82;;
3257;SDS011;1641;51.306;12.384;2022-08-16T09:08:57;5.28;;;4.10;;
3257;SDS011;1641;51.306;12.384;2022-08-16T09:11:24;12.52;;;8.20;;
3257;SDS011;1641;51.306;12.384;2022-08-16T09:13:51;6.97;;;4.97;;
3257;SDS011;1641;51.306;12.384;2022-08-16T09:16:17;6.18;;;4.20;;
3257;SDS011;1641;51.306;12.384;2022-08-16T09:18:43;4.72;;;3.80;;
3257;SDS011;1641;51.306;12.384;2022-08-16T09:21:09;6.70;;;5.90;;
3257;SDS011;1641;51.306;12.384;2022-08-16T09:23:35;4.55;;;3.92;;
3257;SDS011;1641;51.306;12.384;2022-08-16T09:26:01;4.80;;;4.30;;
3257;SDS011;1641;51.306;12.384;2022-08-16T09:28:28;7.15;;;4.82;;
3257;SDS011;1641;51.306;12.384;2022-08-16T09:30:54;7.78;;;4.43;;
3257;SDS011;1641;51.306;12.384;2022-08-16T09:33:19;5.78;;;4.65;;
3257;SDS011;1641;51.306;12.384;2022-08-16T09:35:46;3.70;;;3.35;;
3257;SDS011;1641;51.306;12.384;2022-08-16T09:38:13;4.95;;;3.80;;
3257;SDS011;1641;51.306;12.384;2022-08-16T09:40:40;11.55;;;8.52;;
3257;SDS011;1641;51.306;12.384;2022-08-16T09:43:07;8.35;;;5.82;;
3257;SDS011;1641;51.306;12.384;2022-08-16T09:45:33;4.70;;;3.08;;
3257;SDS011;1641;51.306;12.384;2022-08-16T09:48:03;3.38;;;3.08;;
3257;SDS011;1641;51.306;12.384;2022-08-16T09:50:32;4.50;;;3.17;;
3257;SDS011;1641;51.306;12.384;2022-08-16T09:52:59;4.88;;;3.10;;
3257;SDS011;1641;51.306;12.384;2022-08-16T09:55:25;6.35;;;3.38;;
3257;SDS011;1641;51.306;12.384;2022-08-16T09:57:50;4.32;;;3.40;;
3257;SDS011;1641;51.306;12.384;2022-08-16T10:00:16;4.00;;;3.13;;
3257;SDS011;1641;51.306;12.384;2022-08-16T10:02:41;4.70;;;3.47;;
3257;SDS011;1641;51.306;12.384;2022-08-16T10:05:07;9.70;;;5.80;;
3257;SDS011;1641;51.306;12.384;2022-08-16T10:07:33;4.82;;;3.08;;
3257;SDS011;1641;51.306;12.384;2022-08-16T10:09:58;3.53;;;3.22;;
3257;SDS011;1641;51.306;12.384;2022-08-16T10:12:25;6.60;;;4.50;;
3257;SDS011;1641;51.306;12.384;2022-08-16T10:15:10;2.65;;;2.45;;
3257;SDS011;1641;51.306;12.384;2022-08-16T10:17:37;3.25;;;2.67;;
3257;SDS011;1641;51.306;12.384;2022-08-16T10:20:06;3.28;;;2.88;;
3257;SDS011;1641;51.306;12.384;2022-08-16T10:22:35;5.00;;;3.88;;
3257;SDS011;1641;51.306;12.384;2022-08-16T10:25:00;5.20;;;2.42;;
3257;SDS011;1641;51.306;12.384;2022-08-16T10:27:26;4.20;;;3.40;;
3257;SDS011;1641;51.306;12.384;2022-08-16T10:29:51;8.75;;;3.08;;
3257;SDS011;1641;51.306;12.384;2022-08-16T10:32:16;5.93;;;3.97;;
3257;SDS011;1641;51.306;12.384;2022-08-16T10:34:42;4.25;;;2.85;;
3257;SDS011;1641;51.306;12.384;2022-08-16T10:37:07;3.90;;;3.40;;
3257;SDS011;1641;51.306;12.384;2022-08-16T10:39:32;4.17;;;2.87;;
3257;SDS011;1641;51.306;12.384;2022-08-16T10:41:57;5.40;;;2.90;;
3257;SDS011;1641;51.306;12.384;2022-08-16T10:44:23;4.67;;;2.70;;
3257;SDS011;1641;51.306;12.384;2022-08-16T10:46:48;4.27;;;3.17;;
3257;SDS011;1641;51.306;12.384;2022-08-16T10:49:13;3.97;;;3.40;;
3257;SDS011;1641;51.306;12.384;2022-08-16T10:51:38;4.20;;;2.40;;
3257;SDS011;1641;51.306;12.384;2022-08-16T10:54:04;3.90;;;2.72;;
3257;SDS011;1641;51.306;12.384;2022-08-16T10:56:30;3.38;;;2.85;;
3257;SDS011;1641;51.306;12.384;2022-08-16T10:58:56;4.28;;;2.80;;
3257;SDS011;1641;51.306;12.384;2022-08-16T11:01:23;3.47;;;3.10;;
3257;SDS011;1641;51.306;12.384;2022-08-16T11:03:50;5.95;;;3.40;;
3257;SDS011;1641;51.306;12.384;2022-08-16T11:06:16;7.57;;;2.85;;
3257;SDS011;1641;51.306;12.384;2022-08-16T11:08:42;4.25;;;2.60;;
3257;SDS011;1641;51.306;12.384;2022-08-16T11:11:07;2.47;;;2.22;;
3257;SDS011;1641;51.306;12.384;2022-08-16T11:13:32;5.95;;;2.17;;
3257;SDS011;1641;51.306;12.384;2022-08-16T11:15:58;4.10;;;2.30;;
3257;SDS011;1641;51.306;12.384;2022-08-16T11:18:24;3.90;;;2.67;;
3257;SDS011;1641;51.306;12.384;2022-08-16T11:20:53;5.18;;;2.72;;
3257;SDS011;1641;51.306;12.384;2022-08-16T11:23:20;3.08;;;2.60;;
3257;SDS011;1641;51.306;12.384;2022-08-16T11:25:45;2.93;;;2.50;;
3257;SDS011;1641;51.306;12.384;2022-08-16T11:28:11;5.30;;;2.80;;
3257;SDS011;1641;51.306;12.384;2022-08-16T11:30:38;5.10;;;2.50;;
3257;SDS011;1641;51.306;12.384;2022-08-16T11:33:04;7.05;;;2.65;;
3257;SDS011;1641;51.306;12.384;2022-08-16T11:35:30;2.40;;;2.15;;
3257;SDS011;1641;51.306;12.384;2022-08-16T11:37:57;3.20;;;2.88;;
3257;SDS011;1641;51.306;12.384;2022-08-16T11:40:27;3.03;;;2.70;;
3257;SDS011;1641;51.306;12.384;2022-08-16T11:42:55;3.05;;;2.75;;
3257;SDS011;1641;51.306;12.384;2022-08-16T11:45:21;3.28;;;2.70;;
3257;SDS011;1641;51.306;12.384;2022-08-16T11:47:46;3.03;;;2.10;;
3257;SDS011;1641;51.306;12.384;2022-08-16T11:50:15;2.88;;;2.60;;
3257;SDS011;1641;51.306;12.384;2022-08-16T11:52:41;2.55;;;2.35;;
3257;SDS011;1641;51.306;12.384;2022-08-16T11:55:07;3.85;;;2.60;;
3257;SDS011;1641;51.306;12.384;2022-08-16T11:57:36;4.00;;;2.53;;
3257;SDS011;1641;51.306;12.384;2022-08-16T12:00:12;2.50;;;2.30;;
3257;SDS011;1641;51.306;12.384;2022-08-16T12:02:41;2.95;;;2.65;;
3257;SDS011;1641;51.306;12.384;2022-08-16T12:05:08;4.13;;;2.13;;
3257;SDS011;1641;51.306;12.384;2022-08-16T12:07:42;2.88;;;2.45;;
3257;SDS011;1641;51.306;12.384;2022-08-16T12:10:09;3.05;;;2.70;;
3257;SDS011;1641;51.306;12.384;2022-08-16T12:12:38;3.63;;;2.15;;
3257;SDS011;1641;51.306;12.384;2022-08-16T12:15:04;2.67;;;2.47;;
3257;SDS011;1641;51.306;12.384;2022-08-16T12:17:30;5.60;;;2.47;;
3257;SDS011;1641;51.306;12.384;2022-08-16T12:19:56;6.43;;;2.72;;
3257;SDS011;1641;51.306;12.384;2022-08-16T12:22:24;5.22;;;2.58;;
3257;SDS011;1641;51.306;12.384;2022-08-16T12:24:55;2.60;;;2.38;;
3257;SDS011;1641;51.306;12.384;2022-08-16T12:27:36;4.40;;;2.30;;
3257;SDS011;1641;51.306;12.384;2022-08-16T12:30:03;4.18;;;2.30;;
3257;SDS011;1641;51.306;12.384;2022-08-16T12:32:29;4.13;;;2.42;;
3257;SDS011;1641;51.306;12.384;2022-08-16T12:34:57;2.20;;;2.00;;
3257;SDS011;1641;51.306;12.384;2022-08-16T12:37:23;3.83;;;2.13;;
3257;SDS011;1641;51.306;12.384;2022-08-16T12:39:57;3.45;;;2.53;;
3257;SDS011;1641;51.306;12.384;2022-08-16T12:42:23;3.15;;;2.40;;
3257;SDS011;1641;51.306;12.384;2022-08-16T12:44:49;4.45;;;3.55;;
3257;SDS011;1641;51.306;12.384;2022-08-16T12:47:15;2.40;;;2.20;;
3257;SDS011;1641;51.306;12.384;2022-08-16T12:50:00;3.50;;;2.28;;
3257;SDS011;1641;51.306;12.384;2022-08-16T12:52:26;2.22;;;1.90;;
3257;SDS011;1641;51.306;12.384;2022-08-16T12:54:52;3.72;;;2.58;;
3257;SDS011;1641;51.306;12.384;2022-08-16T12:57:21;7.45;;;2.92;;
3257;SDS011;1641;51.306;12.384;2022-08-16T12:59:48;3.28;;;2.63;;
3257;SDS011;1641;51.306;12.384;2022-08-16T13:02:14;3.75;;;2.10;;
3257;SDS011;1641;51.306;12.384;2022-08-16T13:04:39;2.25;;;2.10;;
3257;SDS011;1641;51.306;12.384;2022-08-16T13:07:04;4.10;;;2.05;;
3257;SDS011;1641;51.306;12.384;2022-08-16T13:09:42;2.50;;;2.30;;
3257;SDS011;1641;51.306;12.384;2022-08-16T13:12:17;3.03;;;2.30;;
3257;SDS011;1641;51.306;12.384;2022-08-16T13:14:50;2.40;;;2.05;;
3257;SDS011;1641;51.306;12.384;2022-08-16T13:17:21;2.83;;;2.13;;
3257;SDS011;1641;51.306;12.384;2022-08-16T13:19:49;8.45;;;2.78;;
3257;SDS011;1641;51.306;12.384;2022-08-16T13:22:16;2.95;;;2.30;;
3257;SDS011;1641;51.306;12.384;2022-08-16T13:24:41;2.50;;;2.20;;
3257;SDS011;1641;51.306;12.384;2022-08-16T13:27:07;4.95;;;2.67;;
3257;SDS011;1641;51.306;12.384;2022-08-16T13:29:32;6.68;;;2.35;;
3257;SDS011;1641;51.306;12.384;2022-08-16T13:31:57;2.88;;;2.40;;
3257;SDS011;1641;51.306;12.384;2022-08-16T13:34:23;4.07;;;2.63;;
3257;SDS011;1641;51.306;12.384;2022-08-16T13:36:51;2.50;;;2.30;;
3257;SDS011;1641;51.306;12.384;2022-08-16T13:39:19;4.35;;;2.40;;
3257;SDS011;1641;51.306;12.384;2022-08-16T13:41:50;4.93;;;2.05;;
3257;SDS011;1641;51.306;12.384;2022-08-16T13:46:42;2.63;;;2.33;;
3257;SDS011;1641;51.306;12.384;2022-08-16T13:49:11;5.07;;;3.05;;
3257;SDS011;1641;51.306;12.384;2022-08-16T13:51:43;2.40;;;2.17;;
3257;SDS011;1641;51.306;12.384;2022-08-16T13:54:11;3.00;;;2.20;;
3257;SDS011;1641;51.306;12.384;2022-08-16T13:56:36;2.30;;;2.10;;
3257;SDS011;1641;51.306;12.384;2022-08-16T13:59:02;4.80;;;3.10;;
3257;SDS011;1641;51.306;12.384;2022-08-16T14:01:34;6.95;;;2.65;;
3257;SDS011;1641;51.306;12.384;2022-08-16T14:04:01;3.10;;;1.98;;
3257;SDS011;1641;51.306;12.384;2022-08-16T14:06:26;4.70;;;2.47;;
3257;SDS011;1641;51.306;12.384;2022-08-16T14:08:52;4.28;;;2.10;;
3257;SDS011;1641;51.306;12.384;2022-08-16T14:11:17;2.58;;;2.33;;
3257;SDS011;1641;51.306;12.384;2022-08-16T14:13:43;3.08;;;2.70;;
3257;SDS011;1641;51.306;12.384;2022-08-16T14:16:12;2.40;;;2.15;;
3257;SDS011;1641;51.306;12.384;2022-08-16T14:18:38;3.20;;;2.50;;
3257;SDS011;1641;51.306;12.384;2022-08-16T14:21:03;6.38;;;2.55;;
3257;SDS011;1641;51.306;12.384;2022-08-16T14:23:32;3.35;;;2.50;;
3257;SDS011;1641;51.306;12.384;2022-08-16T14:26:00;5.45;;;2.85;;
3257;SDS011;1641;51.306;12.384;2022-08-16T14:28:26;3.40;;;1.90;;
3257;SDS011;1641;51.306;12.384;2022-08-16T14:30:51;2.30;;;2.10;;
3257;SDS011;1641;51.306;12.384;2022-08-16T14:33:20;4.72;;;2.30;;
3257;SDS011;1641;51.306;12.384;2022-08-16T14:35:48;2.40;;;2.20;;
3257;SDS011;1641;51.306;12.384;2022-08-16T14:38:14;3.15;;;2.00;;
3257;SDS011;1641;51.306;12.384;2022-08-16T14:40:40;4.13;;;2.67;;
3257;SDS011;1641;51.306;12.384;2022-08-16T14:43:07;4.97;;;2.30;;
3257;SDS011;1641;51.306;12.384;2022-08-16T14:45:32;2.83;;;2.55;;
3257;SDS011;1641;51.306;12.384;2022-08-16T14:47:58;3.85;;;2.50;;
3257;SDS011;1641;51.306;12.384;2022-08-16T14:50:30;5.20;;;2.63;;
3257;SDS011;1641;51.306;12.384;2022-08-16T14:53:06;4.50;;;1.80;;
3257;SDS011;1641;51.306;12.384;2022-08-16T14:55:33;3.72;;;2.55;;